Latest Weather Observations for Forbes

IDN60801

Issued at 4:42 pm EDT Thursday 21 February 2019 (issued every 10 minutes, with the page automatically refreshed every 10 minutes)

About weather observations | Map of weather stations | Latest weather observations for NSW | Other Formats
Station Details ID: 065103 Name: FORBES AIRPORT AWS Lat: -33.36 Lon: 147.92 Height: 230.4 m
Data from the previous 72 hours. | See also: Recent months at Forbes
Date/Time
EDT
Temp
°C
App
Temp
°C
Dew
Point
°C
Rel
Hum
%
Delta-T
°C
Wind Press
QNH
hPa
Press
MSL
hPa
Rain since
9am
mm
Dir  Spd
km/h
Gust
km/h
Spd
kts
Gust
kts
21/04:30pm 32.9 30.6 9.0 23 13.6 SSE 11 17 6 9 1011.5 1010.3 0.0
21/04:00pm 32.8 29.7 8.9 23 13.6 S 15 28 8 15 1011.7 1010.5 0.0
21/03:30pm 32.2 29.5 10.3 26 12.7 S 15 28 8 15 1012.1 1010.9 0.0
21/03:00pm 32.5 30.1 9.9 25 13.0 SE 13 32 7 17 1012.5 1011.3 0.0
21/02:30pm 30.9 27.7 8.6 25 12.5 S 15 26 8 14 1013.0 1011.8 0.0
21/02:00pm 31.1 29.0 9.9 27 12.1 SSE 11 20 6 11 1013.4 1012.1 0.0
21/01:30pm 31.0 28.6 11.4 30 11.5 S 15 28 8 15 1013.8 1012.5 0.0
21/01:00pm 30.1 28.3 12.1 33 10.6 S 13 24 7 13 1014.1 1012.8 0.0
21/12:30pm 29.1 27.7 13.3 37 9.5 SSE 13 24 7 13 1014.6 1013.3 0.0
21/12:00pm 28.4 27.0 13.5 40 8.9 SE 13 22 7 12 1014.9 1013.6 0.0
21/11:30am 27.4 27.6 14.8 46 7.7 SSE 7 15 4 8 1015.1 1013.8 0.0
21/11:00am 27.4 28.3 16.1 50 7.0 ESE 6 15 3 8 1015.2 1014.0 0.0
21/10:30am 25.6 25.4 14.7 51 6.6 ESE 9 17 5 9 1015.1 1013.8 0.0
21/10:00am 25.2 23.8 14.6 51 6.4 ESE 15 20 8 11 1015.0 1013.7 0.0
21/09:30am 23.7 21.8 13.0 51 6.2 E 15 20 8 11 1014.9 1013.6 0.0
21/09:00am 22.7 21.2 10.5 46 6.8 ESE 9 15 5 8 1014.6 1013.3 0.0
21/08:30am 20.7 18.6 6.6 40 7.2 SSE 7 9 4 5 1014.7 1013.4 0.0
21/08:00am 18.9 16.3 6.1 43 6.4 S 9 11 5 6 1014.3 1013.0 0.0
21/07:30am 17.5 15.3 6.1 47 5.6 S 7 13 4 7 1013.8 1012.5 0.0
21/07:00am 16.0 13.9 5.9 51 4.9 S 6 6 3 3 1013.4 1012.1 0.0
21/06:30am 16.1 14.0 5.7 50 5.1 S 6 6 3 3 1012.9 1011.7 0.0
21/06:00am 16.0 13.9 5.6 50 5.1 S 6 6 3 3 1012.6 1011.4 0.0
21/05:30am 16.7 14.8 5.0 46 5.6 S 4 6 2 3 1012.4 1011.2 0.0
21/05:00am 17.1 14.6 4.8 44 5.9 S 7 7 4 4 1012.1 1010.9 0.0
21/04:30am 18.3 14.9 4.1 39 6.8 S 11 17 6 9 1012.0 1010.8 0.0
21/04:00am 18.5 15.0 3.6 37 7.1 S 11 15 6 8 1011.9 1010.7 0.0
21/03:30am 18.2 15.0 3.3 37 7.0 SSW 9 13 5 7 1011.8 1010.6 0.0
21/03:00am 18.3 15.1 3.0 36 7.2 SSW 9 13 5 7 1011.9 1010.7 0.0
21/02:30am 18.3 15.0 2.2 34 7.4 SSW 9 11 5 6 1012.2 1011.0 0.0
21/02:00am 19.1 15.3 2.0 32 7.9 SSW 11 13 6 7 1012.4 1011.2 0.0
21/01:30am 20.2 16.5 2.1 30 8.5 S 11 15 6 8 1012.7 1011.5 0.0
21/01:00am 21.1 16.6 1.9 28 9.0 S 15 20 8 11 1012.6 1011.4 0.0
21/12:30am 21.6 17.0 1.8 27 9.3 SSW 15 20 8 11 1012.6 1011.4 0.0
21/12:00am 21.6 17.4 1.8 27 9.3 SSW 13 20 7 11 1012.4 1011.2 0.0
 
Date/Time
EDT
Temp
°C
App
Temp
°C
Dew
Point
°C
Rel
Hum
%
Delta-T
°C
Wind Press
QNH
hPa
Press
MSL
hPa
Rain since
9am
mm
Dir  Spd
km/h
Gust
km/h
Spd
kts
Gust
kts
20/11:30pm 21.9 17.2 1.0 25 9.7 SSW 15 20 8 11 1012.3 1011.1 0.0
20/11:00pm 22.4 17.7 0.9 24 10.0 SSW 15 20 8 11 1012.2 1011.0 0.0
20/10:30pm 23.0 18.7 0.8 23 10.3 SSW 13 19 7 10 1012.3 1011.1 0.0
20/10:00pm 23.7 18.9 0.1 21 10.9 SSW 15 19 8 10 1012.0 1010.8 0.0
20/09:30pm 24.4 19.5 -0.7 19 11.5 SSW 15 22 8 12 1011.6 1010.4 0.0
20/09:00pm 24.5 20.0 -0.6 19 11.5 SSW 13 17 7 9 1011.3 1010.1 0.0
20/08:30pm 25.3 20.6 -1.5 17 12.2 SSW 13 19 7 10 1010.9 1009.6 0.0
20/08:00pm 26.4 20.9 -2.3 15 13.0 SSW 17 24 9 13 1010.6 1009.3 0.0
20/07:30pm 27.4 21.7 -3.4 13 13.7 SSW 17 26 9 14 1010.3 1009.0 0.0
20/07:00pm 28.2 21.7 -2.8 13 14.1 SSW 22 28 12 15 1010.0 1008.7 0.0
20/06:30pm 28.8 21.7 -4.6 11 14.7 SSW 24 33 13 18 1009.7 1008.4 0.0
20/06:00pm 29.1 23.2 -1.1 14 14.2 SW 20 33 11 18 1009.6 1008.3 0.0
20/05:30pm 28.9 22.2 -1.2 14 14.1 SSW 24 37 13 20 1009.5 1008.2 0.0
20/05:00pm 29.4 22.9 0.1 15 14.1 SW 24 37 13 20 1009.6 1008.3 0.0
20/04:30pm 29.4 23.4 1.0 16 13.9 SSW 22 32 12 17 1009.6 1008.3 0.0
20/04:00pm 28.8 22.5 1.3 17 13.5 SSW 24 35 13 19 1009.8 1008.5 0.0
20/03:30pm 29.1 23.9 2.4 18 13.4 SW 19 33 10 18 1010.1 1008.8 0.0
20/03:00pm 29.6 24.7 4.3 20 13.1 SSW 19 30 10 16 1010.5 1009.2 0.0
20/02:30pm 28.6 23.2 2.7 19 13.0 SW 20 30 11 16 1010.8 1009.5 0.0
20/02:00pm 27.8 23.2 3.5 21 12.3 SW 17 26 9 14 1011.1 1009.8 0.0
20/01:30pm 27.6 22.9 5.2 24 11.6 SSW 19 30 10 16 1011.3 1010.1 0.0
20/01:00pm 27.1 24.1 7.5 29 10.6 S 13 24 7 13 1011.5 1010.3 0.0
20/12:30pm 26.8 22.5 7.8 30 10.3 SSW 20 30 11 16 1011.9 1010.7 0.0
20/12:00pm 26.6 22.5 8.6 32 9.9 S 20 32 11 17 1012.1 1010.9 0.0
20/11:30am 26.1 22.2 9.5 35 9.2 S 20 30 11 16 1012.5 1011.3 0.0
20/11:00am 24.8 20.2 9.5 38 8.4 S 24 32 13 17 1012.5 1011.3 0.0
20/10:30am 23.8 20.6 11.2 45 7.1 S 19 30 10 16 1012.5 1011.3 0.0
20/10:00am 22.8 19.3 13.3 55 5.5 S 24 32 13 17 1012.5 1011.3 0.0
20/09:30am 21.0 18.6 13.7 63 4.3 SSW 19 24 10 13 1012.7 1011.5 0.0
20/09:00am 19.2 17.5 12.5 65 3.8 SSW 13 20 7 11 1012.6 1011.4 0.0
20/08:30am 17.5 15.5 11.5 68 3.3 S 13 19 7 10 1012.5 1011.3 0.0
20/08:00am 16.3 13.8 11.0 71 2.9 SSW 15 19 8 10 1012.1 1010.9 0.0
20/07:30am 14.8 12.7 8.1 64 3.4 S 9 11 5 6 1011.9 1010.7 0.0
20/07:00am 14.1 11.5 6.2 59 3.8 SSW 9 13 5 7 1011.4 1010.2 0.0
20/06:30am 13.0 10.1 4.7 57 3.9 SSW 9 13 5 7 1011.2 1009.9 0.0
20/06:00am 12.3 10.2 3.8 56 3.9 SSE 4 7 2 4 1010.9 1009.6 0.0
20/05:30am 12.6 10.5 3.8 55 4.0 SE 4 7 2 4 1010.6 1009.3 0.0
20/05:00am 13.5 12.1 3.6 51 4.5 CALM 0 2 0 1 1010.4 1009.1 0.0
20/04:30am 15.1 12.3 3.3 45 5.4 SSW 7 13 4 7 1010.4 1009.1 0.0
20/04:00am 13.8 10.6 3.0 48 4.9 WSW 9 11 5 6 1010.3 1009.0 0.0
20/03:30am 14.9 13.4 3.1 45 5.4 CALM 0 0 0 0 1010.6 1009.3 0.0
20/03:00am 15.5 13.1 2.0 40 6.1 SSW 4 6 2 3 1010.8 1009.5 0.0
20/02:30am 16.4 13.5 1.7 37 6.6 SSE 6 7 3 4 1011.0 1009.7 0.0
20/02:00am 17.6 14.4 0.7 32 7.5 SSE 7 7 4 4 1011.4 1010.2 0.0
20/01:30am 19.1 15.2 1.1 30 8.2 S 11 17 6 9 1011.3 1010.1 0.0
20/01:00am 19.7 15.4 0.7 28 8.6 S 13 15 7 8 1011.3 1010.1 0.0
20/12:30am 20.3 15.9 0.2 26 9.0 S 13 17 7 9 1011.3 1010.1 0.0
20/12:00am 21.2 16.4 -0.1 24 9.6 SSW 15 19 8 10 1011.4 1010.2 0.0
 
Date/Time
EDT
Temp
°C
App
Temp
°C
Dew
Point
°C
Rel
Hum
%
Delta-T
°C
Wind Press
QNH
hPa
Press
MSL
hPa
Rain since
9am
mm
Dir  Spd
km/h
Gust
km/h
Spd
kts
Gust
kts
19/11:30pm 21.9 16.9 -1.4 21 10.3 SSW 15 20 8 11 1011.3 1010.1 0.0
19/11:00pm 21.7 17.5 -0.9 22 10.1 SSW 11 17 6 9 1011.2 1009.9 0.0
19/10:30pm 23.0 18.4 -1.1 20 10.8 SSW 13 19 7 10 1011.0 1009.7 0.0
19/10:00pm 23.7 18.7 -1.3 19 11.3 SSW 15 20 8 11 1010.8 1009.5 0.0
19/09:30pm 24.0 19.3 -1.8 18 11.5 SSW 13 17 7 9 1010.3 1009.0 0.0
19/09:00pm 23.4 20.0 -0.8 20 11.0 SSW 7 11 4 6 1009.8 1008.5 0.0
19/08:30pm 24.9 21.1 -1.0 18 11.8 SSW 9 11 5 6 1009.3 1008.0 0.0
19/08:00pm 26.6 22.3 -1.3 16 12.9 SSW 11 15 6 8 1008.9 1007.6 0.0
19/07:30pm 28.5 23.8 -1.6 14 14.0 SSW 13 24 7 13 1008.3 1007.1 0.0
19/07:00pm 29.4 24.1 -0.9 14 14.4 SSW 17 26 9 14 1007.8 1006.6 0.0
19/06:30pm 29.8 24.1 -0.5 14 14.5 SSW 19 28 10 15 1007.7 1006.5 0.0
19/06:00pm 30.6 24.7 -0.9 13 15.1 SSW 20 30 11 16 1007.6 1006.4 0.0
19/05:30pm 30.8 24.8 -1.9 12 15.4 SSW 20 32 11 17 1007.5 1006.3 0.0
19/05:00pm 30.9 25.1 -1.8 12 15.4 SSW 19 26 10 14 1007.4 1006.2 0.0
19/04:30pm 30.9 25.0 -0.7 13 15.2 SW 20 32 11 17 1007.3 1006.0 0.0
19/04:00pm 30.8 24.9 -1.9 12 15.4 SW 19 26 10 14 1007.4 1006.2 0.0
19/03:30pm 30.7 25.1 0.2 14 14.8 SW 19 32 10 17 1007.6 1006.4 0.0
19/03:00pm 30.3 25.4 1.7 16 14.3 SSW 17 30 9 16 1008.0 1006.8 0.0
19/02:30pm 29.6 24.5 2.8 18 13.5 SW 19 28 10 15 1008.4 1007.2 0.0
19/02:00pm 29.2 23.9 1.7 17 13.6 SW 19 30 10 16 1008.8 1007.5 0.0
19/01:30pm 28.7 23.8 2.1 18 13.2 SSW 17 26 9 14 1008.9 1007.6 0.0
19/01:00pm 29.1 24.8 3.1 19 13.2 SW 15 28 8 15 1009.2 1007.9 0.0
19/12:30pm 27.6 23.4 4.0 22 12.0 SW 15 24 8 13 1009.3 1008.0 0.0
19/12:00pm 27.0 21.4 3.5 22 11.8 SSW 22 32 12 17 1009.5 1008.2 0.0
19/11:30am 26.7 22.0 6.2 27 10.8 SSW 20 32 11 17 1009.3 1008.0 0.0
19/11:00am 26.0 21.6 6.6 29 10.3 S 19 32 10 17 1009.5 1008.2 0.0
19/10:30am 24.7 19.2 7.4 33 9.2 SSW 26 35 14 19 1009.6 1008.3 0.0
19/10:00am 23.9 20.2 9.5 40 7.9 SSW 19 26 10 14 1009.5 1008.2 0.0
19/09:30am 22.9 18.8 10.0 44 7.1 SSW 22 32 12 17 1009.0 1007.7 0.0
19/09:00am 22.5 20.2 13.0 55 5.5 SSW 17 20 9 11 1008.5 1007.3 1.4
19/08:30am 21.9 20.0 13.0 57 5.1 SSW 15 22 8 12 1008.4 1007.2 1.4
19/08:00am 21.5 19.9 12.9 58 5.0 SW 13 19 7 10 1008.0 1006.8 1.4
19/07:30am 21.7 20.5 13.9 61 4.6 SW 13 20 7 11 1007.6 1006.4 1.4
19/07:00am 21.5 22.0 16.5 73 3.1 SW 9 13 5 7 1007.1 1005.8 1.4
19/06:30am 20.5 23.1 17.5 83 1.9 CALM 0 0 0 0 1006.7 1005.4 1.4
19/06:00am 21.5 23.0 17.5 78 2.5 WSW 6 7 3 4 1006.3 1005.0 1.4
19/05:30am 21.8 22.7 17.6 77 2.6 SW 9 15 5 8 1006.1 1004.8 1.4
19/05:00am 21.1 24.1 18.5 85 1.6 CALM 0 0 0 0 1005.6 1004.3 1.4
19/04:30am 21.2 24.4 18.8 86 1.5 CALM 0 0 0 0 1005.6 1004.3 1.4
19/04:00am 21.3 23.1 18.3 83 1.9 ENE 6 6 3 3 1005.4 1004.1 1.4
19/03:30am 21.2 22.7 18.0 82 2.0 N 7 9 4 5 1005.7 1004.4 1.4
19/03:00am 21.8 23.5 18.0 79 2.4 N 6 9 3 5 1005.9 1004.6 1.4
19/02:30am 22.4 24.2 18.4 78 2.5 NE 6 6 3 3 1005.8 1004.5 1.4
19/02:00am 22.5 23.8 17.6 74 3.1 ENE 7 13 4 7 1006.0 1004.7 1.4
19/01:30am 22.2 23.6 17.8 76 2.8 ENE 7 9 4 5 1006.4 1005.1 1.4
19/01:00am 22.9 23.5 17.8 73 3.2 NE 11 15 6 8 1006.9 1005.6 1.4
19/12:30am 23.7 22.5 17.4 68 3.9 NE 20 26 11 14 1007.7 1006.5 1.4
19/12:00am 23.3 21.6 18.2 73 3.2 ENE 24 28 13 15 1007.3 1006.0 1.4
 
Date/Time
EDT
Temp
°C
App
Temp
°C
Dew
Point
°C
Rel
Hum
%
Delta-T
°C
Wind Press
QNH
hPa
Press
MSL
hPa
Rain since
9am
mm
Dir  Spd
km/h
Gust
km/h
Spd
kts
Gust
kts
18/11:30pm 23.4 24.3 18.5 74 3.1 E 11 22 6 12 1007.8 1006.6 1.4
18/11:00pm 23.4 26.1 19.5 79 2.5 WSW 4 9 2 5 1009.8 1008.5 1.4
18/10:30pm 24.6 25.2 17.8 66 4.3 SW 11 13 6 7 1009.3 1008.0 1.0
18/10:00pm 25.0 25.0 17.2 62 4.9 ESE 13 22 7 12 1007.3 1006.0 0.8
18/09:30pm 27.0 25.8 16.0 51 6.8 S 17 24 9 13 1008.1 1006.9 0.6
18/09:23pm 28.1 27.0 15.4 46 7.8 S 15 28 8 15 1007.7 1006.5 0.6
18/09:00pm 27.9 24.9 14.9 45 8.0 SSE 24 41 13 22 1005.7 1004.4 0.6
18/08:30pm 28.8 29.0 15.7 45 8.1 NE 9 13 5 7 1005.1 1003.8 0.4
18/08:00pm 29.1 27.5 14.9 42 8.7 NNE 17 20 9 11 1005.3 1004.0 0.4
18/07:30pm 31.1 30.5 13.4 34 10.7 NNE 9 17 5 9 1004.5 1003.2 0.4
18/07:00pm 30.6 29.1 13.0 34 10.6 SSW 13 33 7 18 1005.2 1003.9 0.4
18/06:52pm 31.4 28.5 12.2 30 11.4 WSW 19 39 10 21 1005.2 1003.9 0.2
18/06:30pm 36.7 32.2 6.8 16 16.8 NNW 20 30 11 16 1003.3 1002.0 0.0
18/06:00pm 37.2 31.0 6.3 15 17.3 NNW 28 39 15 21 1003.3 1002.0 0.0
18/05:30pm 37.3 31.9 6.3 15 17.3 NNW 24 57 13 31 1003.7 1002.5 0.0
18/05:00pm 38.0 33.3 7.8 16 17.3 NNW 22 35 12 19 1004.0 1002.8 0.0

Other formats

Comma delimited format used in spreadsheet applications
http://www.bom.gov.au/fwo/IDN60801/IDN60801.94715.axf

JavaScript Object Notation format (JSON) in row-major order
http://www.bom.gov.au/fwo/IDN60801/IDN60801.94715.json

Data quality

Most of these data are generated automatically and are frequently updated. Quality checks on data are not normally performed. It is possible for incorrect values to appear. Refer to information at About Latest Weather Observations and please check the disclaimer before using these data.